sensor_id;sensor_type;location;lat;lon;timestamp;temperature;humidity
12811;DHT22;6470;47.654;7.896;2024-03-23T00:52:11;9.00;99.90
12811;DHT22;6470;47.654;7.896;2024-03-23T00:57:03;8.50;99.90
12811;DHT22;6470;47.654;7.896;2024-03-23T00:59:29;9.20;99.90
12811;DHT22;6470;47.654;7.896;2024-03-23T01:01:56;8.50;99.90
12811;DHT22;6470;47.654;7.896;2024-03-23T01:04:22;8.30;99.90
12811;DHT22;6470;47.654;7.896;2024-03-23T01:06:48;8.50;99.90
12811;DHT22;6470;47.654;7.896;2024-03-23T01:09:13;8.70;99.90
12811;DHT22;6470;47.654;7.896;2024-03-23T01:11:40;9.00;99.90
12811;DHT22;6470;47.654;7.896;2024-03-23T01:18:58;9.90;99.90
12811;DHT22;6470;47.654;7.896;2024-03-23T01:23:50;8.60;99.90
12811;DHT22;6470;47.654;7.896;2024-03-23T01:26:16;9.30;99.90
12811;DHT22;6470;47.654;7.896;2024-03-23T01:28:41;9.20;99.90
12811;DHT22;6470;47.654;7.896;2024-03-23T01:31:07;9.50;99.90
12811;DHT22;6470;47.654;7.896;2024-03-23T01:33:33;9.50;99.90
12811;DHT22;6470;47.654;7.896;2024-03-23T01:35:59;9.60;99.90
12811;DHT22;6470;47.654;7.896;2024-03-23T01:38:24;9.10;99.90
12811;DHT22;6470;47.654;7.896;2024-03-23T01:40:56;9.20;99.90
12811;DHT22;6470;47.654;7.896;2024-03-23T01:43:23;9.10;99.90
12811;DHT22;6470;47.654;7.896;2024-03-23T01:45:48;9.50;99.90
12811;DHT22;6470;47.654;7.896;2024-03-23T01:53:07;9.60;99.90
12811;DHT22;6470;47.654;7.896;2024-03-23T02:00:25;9.60;99.90
12811;DHT22;6470;47.654;7.896;2024-03-23T02:02:53;9.60;99.90
12811;DHT22;6470;47.654;7.896;2024-03-23T02:05:19;10.30;99.90
12811;DHT22;6470;47.654;7.896;2024-03-23T02:07:44;10.00;99.90
12811;DHT22;6470;47.654;7.896;2024-03-23T02:10:11;9.90;99.90
12811;DHT22;6470;47.654;7.896;2024-03-23T02:15:05;10.00;99.90
12811;DHT22;6470;47.654;7.896;2024-03-23T02:17:33;10.40;99.90
12811;DHT22;6470;47.654;7.896;2024-03-23T02:19:59;10.60;99.90
12811;DHT22;6470;47.654;7.896;2024-03-23T02:22:34;10.10;99.90
12811;DHT22;6470;47.654;7.896;2024-03-23T02:29:52;11.70;99.90
12811;DHT22;6470;47.654;7.896;2024-03-23T02:32:17;9.70;99.90
12811;DHT22;6470;47.654;7.896;2024-03-23T02:34:43;12.00;99.90
12811;DHT22;6470;47.654;7.896;2024-03-23T02:37:12;15.30;99.90
12811;DHT22;6470;47.654;7.896;2024-03-23T02:39:37;15.30;99.90
12811;DHT22;6470;47.654;7.896;2024-03-23T02:42:03;15.40;99.90
12811;DHT22;6470;47.654;7.896;2024-03-23T02:49:21;15.00;99.90
12811;DHT22;6470;47.654;7.896;2024-03-23T02:59:06;15.80;99.90
12811;DHT22;6470;47.654;7.896;2024-03-23T03:03:58;15.30;99.90
12811;DHT22;6470;47.654;7.896;2024-03-23T03:06:28;15.40;99.90
12811;DHT22;6470;47.654;7.896;2024-03-23T03:08:53;15.40;99.90
12811;DHT22;6470;47.654;7.896;2024-03-23T03:13:45;15.20;99.90
12811;DHT22;6470;47.654;7.896;2024-03-23T03:16:11;15.10;99.90
12811;DHT22;6470;47.654;7.896;2024-03-23T03:18:38;15.00;99.90
12811;DHT22;6470;47.654;7.896;2024-03-23T03:21:04;12.00;99.90
12811;DHT22;6470;47.654;7.896;2024-03-23T03:23:34;15.30;99.90
12811;DHT22;6470;47.654;7.896;2024-03-23T03:28:25;10.10;99.90
12811;DHT22;6470;47.654;7.896;2024-03-23T03:33:21;12.50;99.90
12811;DHT22;6470;47.654;7.896;2024-03-23T03:35:47;12.30;99.90
12811;DHT22;6470;47.654;7.896;2024-03-23T03:38:13;12.30;99.90
12811;DHT22;6470;47.654;7.896;2024-03-23T03:40:39;14.90;99.90
12811;DHT22;6470;47.654;7.896;2024-03-23T03:43:04;15.10;99.90
12811;DHT22;6470;47.654;7.896;2024-03-23T03:45:30;9.90;99.90
12811;DHT22;6470;47.654;7.896;2024-03-23T03:47:55;12.40;99.90
12811;DHT22;6470;47.654;7.896;2024-03-23T03:50:22;15.20;99.90
12811;DHT22;6470;47.654;7.896;2024-03-23T03:52:47;12.50;99.90
12811;DHT22;6470;47.654;7.896;2024-03-23T03:55:14;11.70;99.90
12811;DHT22;6470;47.654;7.896;2024-03-23T03:57:40;12.30;99.90
12811;DHT22;6470;47.654;7.896;2024-03-23T04:00:06;12.20;99.90
12811;DHT22;6470;47.654;7.896;2024-03-23T04:02:32;11.80;99.90
12811;DHT22;6470;47.654;7.896;2024-03-23T04:07:24;12.30;99.90
12811;DHT22;6470;47.654;7.896;2024-03-23T04:12:16;12.30;99.90
12811;DHT22;6470;47.654;7.896;2024-03-23T04:17:07;12.30;99.90
12811;DHT22;6470;47.654;7.896;2024-03-23T04:19:33;11.80;99.90
12811;DHT22;6470;47.654;7.896;2024-03-23T04:21:59;12.00;99.90
12811;DHT22;6470;47.654;7.896;2024-03-23T04:26:52;15.00;99.90
12811;DHT22;6470;47.654;7.896;2024-03-23T04:29:18;14.80;99.90
12811;DHT22;6470;47.654;7.896;2024-03-23T04:31:44;14.80;99.90
12811;DHT22;6470;47.654;7.896;2024-03-23T04:41:28;11.70;99.90
12811;DHT22;6470;47.654;7.896;2024-03-23T04:43:54;12.30;99.90
12811;DHT22;6470;47.654;7.896;2024-03-23T04:46:19;12.40;99.90
12811;DHT22;6470;47.654;7.896;2024-03-23T04:48:46;12.10;99.90
12811;DHT22;6470;47.654;7.896;2024-03-23T04:51:20;12.30;99.90
12811;DHT22;6470;47.654;7.896;2024-03-23T04:53:47;12.20;99.90
12811;DHT22;6470;47.654;7.896;2024-03-23T04:56:14;12.30;99.90
12811;DHT22;6470;47.654;7.896;2024-03-23T05:01:06;12.20;99.90
12811;DHT22;6470;47.654;7.896;2024-03-23T05:03:32;9.70;99.90
12811;DHT22;6470;47.654;7.896;2024-03-23T05:08:24;12.20;99.90
12811;DHT22;6470;47.654;7.896;2024-03-23T05:15:41;11.60;99.90
12811;DHT22;6470;47.654;7.896;2024-03-23T05:18:07;11.70;99.90
12811;DHT22;6470;47.654;7.896;2024-03-23T05:20:33;12.30;99.90
12811;DHT22;6470;47.654;7.896;2024-03-23T05:22:59;12.20;99.90
12811;DHT22;6470;47.654;7.896;2024-03-23T05:32:43;10.30;99.90
12811;DHT22;6470;47.654;7.896;2024-03-23T05:35:10;10.40;99.90
12811;DHT22;6470;47.654;7.896;2024-03-23T05:37:36;9.80;99.90
12811;DHT22;6470;47.654;7.896;2024-03-23T05:40:03;10.30;99.90
12811;DHT22;6470;47.654;7.896;2024-03-23T05:42:29;10.50;99.90
12811;DHT22;6470;47.654;7.896;2024-03-23T05:44:55;10.50;99.90
12811;DHT22;6470;47.654;7.896;2024-03-23T05:52:13;12.40;99.90
12811;DHT22;6470;47.654;7.896;2024-03-23T05:54:39;12.40;99.90
12811;DHT22;6470;47.654;7.896;2024-03-23T05:57:04;12.10;99.90
12811;DHT22;6470;47.654;7.896;2024-03-23T05:59:33;10.70;99.90
12811;DHT22;6470;47.654;7.896;2024-03-23T06:01:58;9.90;99.90
12811;DHT22;6470;47.654;7.896;2024-03-23T06:04:24;12.40;99.90
12811;DHT22;6470;47.654;7.896;2024-03-23T06:06:53;11.00;99.90
12811;DHT22;6470;47.654;7.896;2024-03-23T06:11:45;9.60;99.90
12811;DHT22;6470;47.654;7.896;2024-03-23T06:14:11;10.80;99.90
12811;DHT22;6470;47.654;7.896;2024-03-23T06:16:37;9.40;99.90
12811;DHT22;6470;47.654;7.896;2024-03-23T06:23:56;10.40;99.90
12811;DHT22;6470;47.654;7.896;2024-03-23T06:26:22;10.20;99.90
12811;DHT22;6470;47.654;7.896;2024-03-23T06:28:48;10.30;99.90
12811;DHT22;6470;47.654;7.896;2024-03-23T06:36:10;10.40;99.90
12811;DHT22;6470;47.654;7.896;2024-03-23T06:38:36;10.70;99.90
12811;DHT22;6470;47.654;7.896;2024-03-23T06:41:03;9.80;99.90
12811;DHT22;6470;47.654;7.896;2024-03-23T06:45:56;9.70;99.90
12811;DHT22;6470;47.654;7.896;2024-03-23T06:48:22;9.90;99.90
12811;DHT22;6470;47.654;7.896;2024-03-23T06:50:48;10.10;99.90
12811;DHT22;6470;47.654;7.896;2024-03-23T06:53:14;10.40;99.90
12811;DHT22;6470;47.654;7.896;2024-03-23T06:55:40;10.30;99.90
12811;DHT22;6470;47.654;7.896;2024-03-23T07:00:32;9.30;99.90
12811;DHT22;6470;47.654;7.896;2024-03-23T07:02:59;10.10;99.90
12811;DHT22;6470;47.654;7.896;2024-03-23T07:05:24;9.90;99.90
12811;DHT22;6470;47.654;7.896;2024-03-23T07:07:50;10.00;99.90
12811;DHT22;6470;47.654;7.896;2024-03-23T07:12:42;10.00;99.90
12811;DHT22;6470;47.654;7.896;2024-03-23T07:15:08;9.60;99.90
12811;DHT22;6470;47.654;7.896;2024-03-23T07:17:34;9.80;99.90
12811;DHT22;6470;47.654;7.896;2024-03-23T07:20:01;9.40;99.90
12811;DHT22;6470;47.654;7.896;2024-03-23T07:22:30;9.20;99.90
12811;DHT22;6470;47.654;7.896;2024-03-23T07:24:55;8.70;99.90
12811;DHT22;6470;47.654;7.896;2024-03-23T07:27:21;8.40;99.90
12811;DHT22;6470;47.654;7.896;2024-03-23T07:29:47;7.90;99.90
12811;DHT22;6470;47.654;7.896;2024-03-23T07:34:38;8.10;99.90
12811;DHT22;6470;47.654;7.896;2024-03-23T07:37:04;8.00;99.90
12811;DHT22;6470;47.654;7.896;2024-03-23T07:39:30;8.40;99.90
12811;DHT22;6470;47.654;7.896;2024-03-23T07:41:58;7.70;99.90
12811;DHT22;6470;47.654;7.896;2024-03-23T07:44:24;8.30;99.90
12811;DHT22;6470;47.654;7.896;2024-03-23T07:46:49;7.60;99.90
12811;DHT22;6470;47.654;7.896;2024-03-23T07:49:15;8.00;99.90
12811;DHT22;6470;47.654;7.896;2024-03-23T07:51:41;8.40;99.90
12811;DHT22;6470;47.654;7.896;2024-03-23T07:54:06;8.10;99.90
12811;DHT22;6470;47.654;7.896;2024-03-23T07:56:32;8.20;99.90
12811;DHT22;6470;47.654;7.896;2024-03-23T07:58:58;7.50;99.90
12811;DHT22;6470;47.654;7.896;2024-03-23T08:01:24;7.50;99.90
12811;DHT22;6470;47.654;7.896;2024-03-23T08:03:49;8.10;99.90
12811;DHT22;6470;47.654;7.896;2024-03-23T08:06:16;7.80;99.90
12811;DHT22;6470;47.654;7.896;2024-03-23T08:08:44;8.00;99.90
12811;DHT22;6470;47.654;7.896;2024-03-23T08:13:40;7.90;99.90
12811;DHT22;6470;47.654;7.896;2024-03-23T08:21:05;6.80;99.90
12811;DHT22;6470;47.654;7.896;2024-03-23T08:23:32;7.40;99.90
12811;DHT22;6470;47.654;7.896;2024-03-23T08:26:10;7.60;99.90
12811;DHT22;6470;47.654;7.896;2024-03-23T08:31:10;5.40;99.90
12811;DHT22;6470;47.654;7.896;2024-03-23T08:33:37;8.20;99.90
12811;DHT22;6470;47.654;7.896;2024-03-23T08:36:06;7.80;99.90
12811;DHT22;6470;47.654;7.896;2024-03-23T08:38:32;8.20;99.90
12811;DHT22;6470;47.654;7.896;2024-03-23T08:41:02;7.80;99.90
12811;DHT22;6470;47.654;7.896;2024-03-23T08:46:11;8.40;99.90
12811;DHT22;6470;47.654;7.896;2024-03-23T08:48:39;9.30;99.90
12811;DHT22;6470;47.654;7.896;2024-03-23T08:51:07;8.00;99.90
12811;DHT22;6470;47.654;7.896;2024-03-23T08:53:34;9.20;99.90
12811;DHT22;6470;47.654;7.896;2024-03-23T08:56:00;9.40;99.90
12811;DHT22;6470;47.654;7.896;2024-03-23T08:58:27;10.00;99.90
12811;DHT22;6470;47.654;7.896;2024-03-23T09:00:54;9.10;99.90
12811;DHT22;6470;47.654;7.896;2024-03-23T09:03:25;10.00;99.90
12811;DHT22;6470;47.654;7.896;2024-03-23T09:05:52;10.10;99.90
12811;DHT22;6470;47.654;7.896;2024-03-23T09:08:18;9.10;99.90
12811;DHT22;6470;47.654;7.896;2024-03-23T09:10:45;8.90;99.90
12811;DHT22;6470;47.654;7.896;2024-03-23T09:13:11;9.70;99.90
12811;DHT22;6470;47.654;7.896;2024-03-23T09:15:44;9.80;99.90
12811;DHT22;6470;47.654;7.896;2024-03-23T09:18:10;9.60;99.90
12811;DHT22;6470;47.654;7.896;2024-03-23T09:20:36;10.10;99.90
12811;DHT22;6470;47.654;7.896;2024-03-23T09:25:28;10.00;99.90
12811;DHT22;6470;47.654;7.896;2024-03-23T09:27:54;9.90;99.90
12811;DHT22;6470;47.654;7.896;2024-03-23T09:32:46;11.80;99.90
12811;DHT22;6470;47.654;7.896;2024-03-23T09:35:12;9.90;99.90
12811;DHT22;6470;47.654;7.896;2024-03-23T09:37:41;11.70;99.90
12811;DHT22;6470;47.654;7.896;2024-03-23T09:40:10;9.70;99.90
12811;DHT22;6470;47.654;7.896;2024-03-23T09:42:37;10.10;99.90
12811;DHT22;6470;47.654;7.896;2024-03-23T09:45:05;11.70;99.90
12811;DHT22;6470;47.654;7.896;2024-03-23T09:47:33;9.30;99.90
12811;DHT22;6470;47.654;7.896;2024-03-23T09:50:00;10.80;99.90
12811;DHT22;6470;47.654;7.896;2024-03-23T09:52:26;12.40;99.90
12811;DHT22;6470;47.654;7.896;2024-03-23T09:54:52;12.10;99.90
12811;DHT22;6470;47.654;7.896;2024-03-23T09:57:17;9.70;99.90
12811;DHT22;6470;47.654;7.896;2024-03-23T10:02:10;9.30;99.90
12811;DHT22;6470;47.654;7.896;2024-03-23T10:04:41;10.90;99.90
12811;DHT22;6470;47.654;7.896;2024-03-23T10:07:14;10.50;99.90
12811;DHT22;6470;47.654;7.896;2024-03-23T10:09:40;9.90;99.90
12811;DHT22;6470;47.654;7.896;2024-03-23T10:12:10;11.00;99.90
12811;DHT22;6470;47.654;7.896;2024-03-23T10:17:34;9.30;99.90
12811;DHT22;6470;47.654;7.896;2024-03-23T10:20:00;9.20;99.90
12811;DHT22;6470;47.654;7.896;2024-03-23T10:24:53;11.70;99.90
12811;DHT22;6470;47.654;7.896;2024-03-23T10:27:31;12.30;99.90
12811;DHT22;6470;47.654;7.896;2024-03-23T10:30:10;12.00;99.90
12811;DHT22;6470;47.654;7.896;2024-03-23T10:32:37;11.60;99.90
12811;DHT22;6470;47.654;7.896;2024-03-23T10:35:19;11.60;99.90
12811;DHT22;6470;47.654;7.896;2024-03-23T10:37:47;9.70;99.90
12811;DHT22;6470;47.654;7.896;2024-03-23T10:40:15;15.40;99.90
12811;DHT22;6470;47.654;7.896;2024-03-23T10:42:41;11.50;99.90
12811;DHT22;6470;47.654;7.896;2024-03-23T10:45:08;15.00;99.90
12811;DHT22;6470;47.654;7.896;2024-03-23T10:47:37;15.70;99.90
12811;DHT22;6470;47.654;7.896;2024-03-23T10:50:06;12.30;99.90
12811;DHT22;6470;47.654;7.896;2024-03-23T10:52:36;14.70;99.90
12811;DHT22;6470;47.654;7.896;2024-03-23T10:55:05;15.10;99.90
12811;DHT22;6470;47.654;7.896;2024-03-23T10:57:37;15.30;99.90
12811;DHT22;6470;47.654;7.896;2024-03-23T11:00:06;12.60;99.90
12811;DHT22;6470;47.654;7.896;2024-03-23T11:02:32;11.80;99.90
12811;DHT22;6470;47.654;7.896;2024-03-23T11:09:50;8.00;99.90
12811;DHT22;6470;47.654;7.896;2024-03-23T11:14:51;9.10;99.90
12811;DHT22;6470;47.654;7.896;2024-03-23T11:17:21;9.60;99.90
12811;DHT22;6470;47.654;7.896;2024-03-23T11:20:13;9.60;99.90
12811;DHT22;6470;47.654;7.896;2024-03-23T11:22:46;8.60;99.90
12811;DHT22;6470;47.654;7.896;2024-03-23T11:25:19;8.00;99.90
12811;DHT22;6470;47.654;7.896;2024-03-23T11:27:56;7.00;99.90
12811;DHT22;6470;47.654;7.896;2024-03-23T11:30:27;6.60;99.90
12811;DHT22;6470;47.654;7.896;2024-03-23T11:32:56;6.30;99.90
12811;DHT22;6470;47.654;7.896;2024-03-23T11:38:15;5.90;99.90
12811;DHT22;6470;47.654;7.896;2024-03-23T11:40:46;3.00;99.90
12811;DHT22;6470;47.654;7.896;2024-03-23T11:43:17;6.30;99.90
12811;DHT22;6470;47.654;7.896;2024-03-23T11:48:17;6.50;99.90
12811;DHT22;6470;47.654;7.896;2024-03-23T11:50:45;7.50;99.90
12811;DHT22;6470;47.654;7.896;2024-03-23T11:55:54;7.20;99.90
12811;DHT22;6470;47.654;7.896;2024-03-23T11:58:22;7.40;99.90
12811;DHT22;6470;47.654;7.896;2024-03-23T12:01:00;8.00;99.90
12811;DHT22;6470;47.654;7.896;2024-03-23T12:03:30;7.50;99.90
12811;DHT22;6470;47.654;7.896;2024-03-23T12:06:02;8.70;99.90
12811;DHT22;6470;47.654;7.896;2024-03-23T12:08:35;9.00;99.90
12811;DHT22;6470;47.654;7.896;2024-03-23T12:11:12;10.20;99.90
12811;DHT22;6470;47.654;7.896;2024-03-23T12:13:39;9.50;99.90
12811;DHT22;6470;47.654;7.896;2024-03-23T12:18:44;9.00;99.90
12811;DHT22;6470;47.654;7.896;2024-03-23T12:21:10;10.00;99.90
12811;DHT22;6470;47.654;7.896;2024-03-23T12:23:38;9.50;99.90
12811;DHT22;6470;47.654;7.896;2024-03-23T12:26:04;8.80;99.90
12811;DHT22;6470;47.654;7.896;2024-03-23T12:28:30;8.80;99.90
12811;DHT22;6470;47.654;7.896;2024-03-23T12:30:55;9.80;99.90
12811;DHT22;6470;47.654;7.896;2024-03-23T12:33:21;10.40;99.90
12811;DHT22;6470;47.654;7.896;2024-03-23T12:35:48;10.70;99.90
12811;DHT22;6470;47.654;7.896;2024-03-23T12:38:13;10.40;99.90
12811;DHT22;6470;47.654;7.896;2024-03-23T12:40:39;10.50;99.90
12811;DHT22;6470;47.654;7.896;2024-03-23T12:43:06;12.20;99.90
12811;DHT22;6470;47.654;7.896;2024-03-23T12:45:33;12.50;99.90
12811;DHT22;6470;47.654;7.896;2024-03-23T12:47:59;10.20;99.90
12811;DHT22;6470;47.654;7.896;2024-03-23T12:52:50;9.40;99.90
12811;DHT22;6470;47.654;7.896;2024-03-23T12:55:16;10.70;99.90
12811;DHT22;6470;47.654;7.896;2024-03-23T12:57:42;9.90;99.90
12811;DHT22;6470;47.654;7.896;2024-03-23T13:00:08;11.80;99.90
12811;DHT22;6470;47.654;7.896;2024-03-23T13:02:38;11.30;99.90
12811;DHT22;6470;47.654;7.896;2024-03-23T13:05:04;11.70;99.90
12811;DHT22;6470;47.654;7.896;2024-03-23T13:07:30;10.50;99.90
12811;DHT22;6470;47.654;7.896;2024-03-23T13:09:56;10.30;99.90
12811;DHT22;6470;47.654;7.896;2024-03-23T13:12:22;10.10;99.90
12811;DHT22;6470;47.654;7.896;2024-03-23T13:14:48;9.50;99.90
12811;DHT22;6470;47.654;7.896;2024-03-23T13:17:14;10.20;99.90
12811;DHT22;6470;47.654;7.896;2024-03-23T13:19:40;10.20;99.90
12811;DHT22;6470;47.654;7.896;2024-03-23T13:22:06;9.30;99.90
12811;DHT22;6470;47.654;7.896;2024-03-23T13:24:32;12.20;99.90
12811;DHT22;6470;47.654;7.896;2024-03-23T13:26:58;15.60;99.90
12811;DHT22;6470;47.654;7.896;2024-03-23T13:29:24;15.40;99.90
12811;DHT22;6470;47.654;7.896;2024-03-23T13:31:51;11.30;99.90
12811;DHT22;6470;47.654;7.896;2024-03-23T13:34:17;10.70;99.90
12811;DHT22;6470;47.654;7.896;2024-03-23T13:36:47;10.70;99.90
12811;DHT22;6470;47.654;7.896;2024-03-23T13:39:14;12.40;99.90
12811;DHT22;6470;47.654;7.896;2024-03-23T13:41:44;9.70;99.90
12811;DHT22;6470;47.654;7.896;2024-03-23T13:44:13;10.10;99.90
12811;DHT22;6470;47.654;7.896;2024-03-23T13:46:42;9.70;99.90
12811;DHT22;6470;47.654;7.896;2024-03-23T13:49:29;9.30;99.90
12811;DHT22;6470;47.654;7.896;2024-03-23T13:51:57;12.20;99.90
12811;DHT22;6470;47.654;7.896;2024-03-23T13:56:53;9.60;99.90
12811;DHT22;6470;47.654;7.896;2024-03-23T13:59:20;15.40;99.90
12811;DHT22;6470;47.654;7.896;2024-03-23T14:01:46;12.20;99.90
12811;DHT22;6470;47.654;7.896;2024-03-23T14:04:12;11.20;99.90
12811;DHT22;6470;47.654;7.896;2024-03-23T14:06:38;10.10;99.90
12811;DHT22;6470;47.654;7.896;2024-03-23T14:09:05;10.00;99.90
12811;DHT22;6470;47.654;7.896;2024-03-23T14:11:35;10.00;99.90
12811;DHT22;6470;47.654;7.896;2024-03-23T14:16:32;10.60;99.90
12811;DHT22;6470;47.654;7.896;2024-03-23T14:18:57;12.20;99.90
12811;DHT22;6470;47.654;7.896;2024-03-23T14:21:23;10.80;99.90
12811;DHT22;6470;47.654;7.896;2024-03-23T14:23:49;9.40;99.90
12811;DHT22;6470;47.654;7.896;2024-03-23T14:26:15;10.00;99.90
12811;DHT22;6470;47.654;7.896;2024-03-23T14:28:40;9.90;99.90
12811;DHT22;6470;47.654;7.896;2024-03-23T14:31:06;10.00;99.90
12811;DHT22;6470;47.654;7.896;2024-03-23T14:33:37;10.40;99.90
12811;DHT22;6470;47.654;7.896;2024-03-23T14:36:03;10.20;99.90
12811;DHT22;6470;47.654;7.896;2024-03-23T14:38:29;9.20;99.90
12811;DHT22;6470;47.654;7.896;2024-03-23T14:41:01;10.10;99.90
12811;DHT22;6470;47.654;7.896;2024-03-23T14:43:29;9.20;99.90
12811;DHT22;6470;47.654;7.896;2024-03-23T14:46:14;9.40;99.90
12811;DHT22;6470;47.654;7.896;2024-03-23T14:48:42;10.30;99.90
12811;DHT22;6470;47.654;7.896;2024-03-23T14:51:08;10.30;99.90
12811;DHT22;6470;47.654;7.896;2024-03-23T14:53:36;10.40;99.90
12811;DHT22;6470;47.654;7.896;2024-03-23T14:56:02;10.30;99.90
12811;DHT22;6470;47.654;7.896;2024-03-23T15:01:05;9.40;99.90
12811;DHT22;6470;47.654;7.896;2024-03-23T15:03:30;10.00;99.90
12811;DHT22;6470;47.654;7.896;2024-03-23T15:05:58;10.00;99.90
12811;DHT22;6470;47.654;7.896;2024-03-23T15:10:51;9.30;99.90
12811;DHT22;6470;47.654;7.896;2024-03-23T15:13:17;9.00;99.90
12811;DHT22;6470;47.654;7.896;2024-03-23T15:15:43;8.50;99.90
12811;DHT22;6470;47.654;7.896;2024-03-23T15:18:13;8.90;99.90
12811;DHT22;6470;47.654;7.896;2024-03-23T15:20:58;8.90;99.90
12811;DHT22;6470;47.654;7.896;2024-03-23T15:23:27;9.20;99.90
12811;DHT22;6470;47.654;7.896;2024-03-23T15:25:57;8.70;99.90
12811;DHT22;6470;47.654;7.896;2024-03-23T15:28:23;6.30;99.90
12811;DHT22;6470;47.654;7.896;2024-03-23T15:30:49;9.10;99.90
12811;DHT22;6470;47.654;7.896;2024-03-23T15:33:15;9.50;99.90
12811;DHT22;6470;47.654;7.896;2024-03-23T15:35:41;9.40;99.90
12811;DHT22;6470;47.654;7.896;2024-03-23T15:38:07;9.20;99.90
12811;DHT22;6470;47.654;7.896;2024-03-23T15:40:33;9.40;99.90
12811;DHT22;6470;47.654;7.896;2024-03-23T15:42:58;9.30;99.90
12811;DHT22;6470;47.654;7.896;2024-03-23T15:45:24;9.20;99.90
12811;DHT22;6470;47.654;7.896;2024-03-23T15:47:50;9.50;99.90
12811;DHT22;6470;47.654;7.896;2024-03-23T15:50:15;6.60;99.90
12811;DHT22;6470;47.654;7.896;2024-03-23T15:52:41;6.60;99.90
12811;DHT22;6470;47.654;7.896;2024-03-23T15:55:07;9.40;99.90
12811;DHT22;6470;47.654;7.896;2024-03-23T16:00:02;6.70;99.90
12811;DHT22;6470;47.654;7.896;2024-03-23T16:07:21;8.90;99.90
12811;DHT22;6470;47.654;7.896;2024-03-23T16:09:46;9.20;99.90
12811;DHT22;6470;47.654;7.896;2024-03-23T16:14:38;9.50;99.90
12811;DHT22;6470;47.654;7.896;2024-03-23T16:17:04;9.00;99.90
12811;DHT22;6470;47.654;7.896;2024-03-23T16:19:29;9.30;99.90
12811;DHT22;6470;47.654;7.896;2024-03-23T16:21:55;9.60;99.90
12811;DHT22;6470;47.654;7.896;2024-03-23T16:24:21;9.40;99.90
12811;DHT22;6470;47.654;7.896;2024-03-23T16:26:47;8.80;99.90
12811;DHT22;6470;47.654;7.896;2024-03-23T16:31:40;9.00;99.90
12811;DHT22;6470;47.654;7.896;2024-03-23T16:34:06;8.10;99.90
12811;DHT22;6470;47.654;7.896;2024-03-23T16:36:32;8.60;99.90
12811;DHT22;6470;47.654;7.896;2024-03-23T16:41:24;8.80;99.90
12811;DHT22;6470;47.654;7.896;2024-03-23T16:43:49;8.60;99.90
12811;DHT22;6470;47.654;7.896;2024-03-23T16:46:15;6.30;99.90
12811;DHT22;6470;47.654;7.896;2024-03-23T16:48:43;8.60;99.90
12811;DHT22;6470;47.654;7.896;2024-03-23T16:51:10;8.50;99.90
12811;DHT22;6470;47.654;7.896;2024-03-23T16:56:06;7.80;99.90
12811;DHT22;6470;47.654;7.896;2024-03-23T16:58:33;4.90;99.90
12811;DHT22;6470;47.654;7.896;2024-03-23T17:01:06;7.00;99.90
12811;DHT22;6470;47.654;7.896;2024-03-23T17:03:46;6.70;99.90
12811;DHT22;6470;47.654;7.896;2024-03-23T17:08:40;7.70;99.90
12811;DHT22;6470;47.654;7.896;2024-03-23T17:11:06;4.00;99.90
12811;DHT22;6470;47.654;7.896;2024-03-23T17:13:32;7.40;99.90
12811;DHT22;6470;47.654;7.896;2024-03-23T17:15:58;6.70;99.90
12811;DHT22;6470;47.654;7.896;2024-03-23T17:18:24;6.90;99.90
12811;DHT22;6470;47.654;7.896;2024-03-23T17:20:50;7.00;99.90
12811;DHT22;6470;47.654;7.896;2024-03-23T17:23:29;6.80;99.90
12811;DHT22;6470;47.654;7.896;2024-03-23T17:25:58;2.70;99.90
12811;DHT22;6470;47.654;7.896;2024-03-23T17:28:24;5.80;99.90
12811;DHT22;6470;47.654;7.896;2024-03-23T17:30:50;5.40;99.90
12811;DHT22;6470;47.654;7.896;2024-03-23T17:33:16;5.00;99.90
12811;DHT22;6470;47.654;7.896;2024-03-23T17:35:43;5.30;99.90
12811;DHT22;6470;47.654;7.896;2024-03-23T17:38:09;4.70;99.90
12811;DHT22;6470;47.654;7.896;2024-03-23T17:40:35;5.70;99.90
12811;DHT22;6470;47.654;7.896;2024-03-23T17:43:01;5.40;99.90
12811;DHT22;6470;47.654;7.896;2024-03-23T17:45:27;5.80;99.90
12811;DHT22;6470;47.654;7.896;2024-03-23T17:47:53;5.70;99.90
12811;DHT22;6470;47.654;7.896;2024-03-23T17:50:19;5.60;99.90
12811;DHT22;6470;47.654;7.896;2024-03-23T17:52:45;5.60;99.90
12811;DHT22;6470;47.654;7.896;2024-03-23T17:55:11;2.10;99.90
12811;DHT22;6470;47.654;7.896;2024-03-23T17:57:37;3.00;99.90
12811;DHT22;6470;47.654;7.896;2024-03-23T18:00:03;5.70;99.90
12811;DHT22;6470;47.654;7.896;2024-03-23T18:02:32;5.10;99.90
12811;DHT22;6470;47.654;7.896;2024-03-23T18:09:51;5.40;99.90
12811;DHT22;6470;47.654;7.896;2024-03-23T18:12:17;5.10;99.90
12811;DHT22;6470;47.654;7.896;2024-03-23T18:14:44;5.60;99.90
12811;DHT22;6470;47.654;7.896;2024-03-23T18:19:35;5.20;99.90
12811;DHT22;6470;47.654;7.896;2024-03-23T18:24:27;5.00;99.90
12811;DHT22;6470;47.654;7.896;2024-03-23T18:26:53;2.10;99.90
12811;DHT22;6470;47.654;7.896;2024-03-23T18:29:21;4.80;99.90
12811;DHT22;6470;47.654;7.896;2024-03-23T18:31:46;4.70;99.90
12811;DHT22;6470;47.654;7.896;2024-03-23T18:34:12;5.00;99.90
12811;DHT22;6470;47.654;7.896;2024-03-23T18:36:38;5.00;99.90
12811;DHT22;6470;47.654;7.896;2024-03-23T18:41:31;5.20;99.90
12811;DHT22;6470;47.654;7.896;2024-03-23T18:43:57;5.20;99.90
12811;DHT22;6470;47.654;7.896;2024-03-23T18:46:23;4.60;99.90
12811;DHT22;6470;47.654;7.896;2024-03-23T18:48:49;5.20;99.90
12811;DHT22;6470;47.654;7.896;2024-03-23T18:51:15;5.10;99.90
12811;DHT22;6470;47.654;7.896;2024-03-23T18:58:33;5.10;99.90
12811;DHT22;6470;47.654;7.896;2024-03-23T19:01:02;1.90;99.90
12811;DHT22;6470;47.654;7.896;2024-03-23T19:03:29;5.00;99.90
12811;DHT22;6470;47.654;7.896;2024-03-23T19:05:59;5.30;99.90
12811;DHT22;6470;47.654;7.896;2024-03-23T19:08:25;5.70;99.90
12811;DHT22;6470;47.654;7.896;2024-03-23T19:10:58;5.00;99.90
12811;DHT22;6470;47.654;7.896;2024-03-23T19:13:26;5.70;99.90
12811;DHT22;6470;47.654;7.896;2024-03-23T19:15:52;6.10;99.90
12811;DHT22;6470;47.654;7.896;2024-03-23T19:20:55;5.60;99.90
12811;DHT22;6470;47.654;7.896;2024-03-23T19:23:21;5.40;99.90
12811;DHT22;6470;47.654;7.896;2024-03-23T19:25:58;5.60;99.90
12811;DHT22;6470;47.654;7.896;2024-03-23T19:28:25;6.10;99.90
12811;DHT22;6470;47.654;7.896;2024-03-23T19:30:52;6.50;99.90
12811;DHT22;6470;47.654;7.896;2024-03-23T19:33:18;6.40;99.90
12811;DHT22;6470;47.654;7.896;2024-03-23T19:38:11;6.10;99.90
12811;DHT22;6470;47.654;7.896;2024-03-23T19:40:37;5.90;99.90
12811;DHT22;6470;47.654;7.896;2024-03-23T19:43:03;6.20;99.90
12811;DHT22;6470;47.654;7.896;2024-03-23T19:47:56;5.60;99.90
12811;DHT22;6470;47.654;7.896;2024-03-23T19:50:22;5.90;99.90
12811;DHT22;6470;47.654;7.896;2024-03-23T19:52:50;5.70;99.90
12811;DHT22;6470;47.654;7.896;2024-03-23T19:55:16;5.80;99.90
12811;DHT22;6470;47.654;7.896;2024-03-23T19:57:43;5.20;99.90
12811;DHT22;6470;47.654;7.896;2024-03-23T20:00:09;5.60;99.90
12811;DHT22;6470;47.654;7.896;2024-03-23T20:05:01;5.60;99.90
12811;DHT22;6470;47.654;7.896;2024-03-23T20:07:27;5.60;99.90
12811;DHT22;6470;47.654;7.896;2024-03-23T20:09:53;4.70;99.90
12811;DHT22;6470;47.654;7.896;2024-03-23T20:12:19;2.40;99.90
12811;DHT22;6470;47.654;7.896;2024-03-23T20:14:45;5.40;99.90
12811;DHT22;6470;47.654;7.896;2024-03-23T20:17:11;4.70;99.90